Time;durP1;ratioP1;P1;durP2;ratioP2;P2;SDS_P1;SDS_P2;PMS_P1;PMS_P2;Temp;Humidity;BMP_temperature;BMP_pressure;BME280_temperature;BME280_humidity;BME280_pressure;Samples;Min_cycle;Max_cycle;Signal;HPM_P1;HPM_P2
2024/03/08 00:02:37;;;;;;;32.20;30.27;;;;;;;;;;5066768;28;20592;-61
2024/03/08 00:05:23;;;;;;;31.65;29.73;;;;;;;;;;5066165;28;20033;-59
2024/03/08 00:08:09;;;;;;;32.17;30.38;;;;;;;;;;5067430;28;20223;-61
2024/03/08 00:10:55;;;;;;;31.15;29.38;;;;;;;;;;5066159;28;20648;-61
2024/03/08 00:13:41;;;;;;;32.38;30.38;;;;;;;;;;5065974;28;20040;-60
2024/03/08 00:16:27;;;;;;;32.35;30.50;;;;;;;;;;5049082;28;20531;-60
2024/03/08 00:19:13;;;;;;;30.95;29.13;;;;;;;;;;5064810;28;20037;-60
2024/03/08 00:21:58;;;;;;;29.80;28.00;;;;;;;;;;5062521;28;20044;-60
2024/03/08 00:24:45;;;;;;;30.33;28.42;;;;;;;;;;5065725;28;20127;-60
2024/03/08 00:27:30;;;;;;;29.92;28.17;;;;;;;;;;5064122;28;20169;-61
2024/03/08 00:30:16;;;;;;;29.45;27.65;;;;;;;;;;5063276;28;20485;-60
2024/03/08 00:33:02;;;;;;;29.02;27.35;;;;;;;;;;5064883;28;21387;-60
2024/03/08 00:35:48;;;;;;;26.95;25.45;;;;;;;;;;5065486;28;20058;-61
2024/03/08 00:38:34;;;;;;;27.55;25.92;;;;;;;;;;5065304;28;20489;-60
2024/03/08 00:41:19;;;;;;;27.48;25.95;;;;;;;;;;5066237;28;20039;-60
2024/03/08 00:44:05;;;;;;;27.55;25.95;;;;;;;;;;5066609;28;20127;-60
2024/03/08 00:46:51;;;;;;;24.77;23.38;;;;;;;;;;5062902;28;20094;-60
2024/03/08 00:49:37;;;;;;;26.98;25.45;;;;;;;;;;5048698;28;20041;-61
2024/03/08 00:52:26;;;;;;;25.70;24.30;;;;;;;;;;5062965;28;20166;-60
2024/03/08 00:55:12;;;;;;;26.90;24.63;;;;;;;;;;5062649;28;20040;-60
2024/03/08 00:57:57;;;;;;;24.75;23.23;;;;;;;;;;5063286;28;20861;-60
2024/03/08 01:00:44;;;;;;;27.08;25.58;;;;;;;;;;5063635;28;20053;-60
2024/03/08 01:03:34;;;;;;;25.90;24.48;;;;;;;;;;5062490;28;20028;-60
2024/03/08 01:06:19;;;;;;;27.17;25.55;;;;;;;;;;5062001;28;20051;-60
2024/03/08 01:09:06;;;;;;;25.70;24.25;;;;;;;;;;5063125;28;20074;-60
2024/03/08 01:11:55;;;;;;;26.02;24.63;;;;;;;;;;5063220;28;20040;-60
2024/03/08 01:14:41;;;;;;;27.33;25.52;;;;;;;;;;5063821;28;20040;-60
2024/03/08 01:17:27;;;;;;;27.50;25.83;;;;;;;;;;5063237;28;20374;-60
2024/03/08 01:20:12;;;;;;;27.45;25.83;;;;;;;;;;5064810;28;20611;-60
2024/03/08 01:22:58;;;;;;;28.75;26.95;;;;;;;;;;5063936;28;20054;-60
2024/03/08 01:25:43;;;;;;;26.67;25.17;;;;;;;;;;5048058;28;20039;-60
2024/03/08 01:28:30;;;;;;;28.30;26.42;;;;;;;;;;5061167;28;20028;-60
2024/03/08 01:31:15;;;;;;;29.00;27.33;;;;;;;;;;5045880;28;20062;-60
2024/03/08 01:34:01;;;;;;;27.77;26.08;;;;;;;;;;5047458;28;20123;-60
2024/03/08 01:36:47;;;;;;;28.00;26.30;;;;;;;;;;5063411;28;20041;-60
2024/03/08 01:39:32;;;;;;;27.90;26.13;;;;;;;;;;5061696;28;20037;-60
2024/03/08 01:42:18;;;;;;;27.58;26.05;;;;;;;;;;5063626;28;20453;-60
2024/03/08 01:45:07;;;;;;;28.90;27.23;;;;;;;;;;5064940;28;20038;-60
2024/03/08 01:47:52;;;;;;;27.38;25.70;;;;;;;;;;5064239;28;20047;-61
2024/03/08 01:50:39;;;;;;;28.35;26.75;;;;;;;;;;5067112;28;20028;-60
2024/03/08 01:53:26;;;;;;;26.60;24.95;;;;;;;;;;5049368;28;20044;-60
2024/03/08 01:56:13;;;;;;;27.73;26.20;;;;;;;;;;5060986;28;20129;-60
2024/03/08 01:58:59;;;;;;;26.80;25.23;;;;;;;;;;5062542;28;20064;-60
2024/03/08 02:01:45;;;;;;;40.55;27.55;;;;;;;;;;5062962;28;20056;-60
2024/03/08 02:04:31;;;;;;;28.77;27.15;;;;;;;;;;5064584;28;20095;-60
2024/03/08 02:07:16;;;;;;;29.48;27.58;;;;;;;;;;5062413;28;20159;-61
2024/03/08 02:10:02;;;;;;;28.60;27.00;;;;;;;;;;5061114;28;20040;-60
2024/03/08 02:12:48;;;;;;;28.02;26.25;;;;;;;;;;5066137;28;20613;-60
2024/03/08 02:15:59;;;;;;;30.35;28.50;;;;;;;;;;5060558;28;20600;-60
2024/03/08 02:18:44;;;;;;;27.30;25.25;;;;;;;;;;5059285;28;20040;-60
2024/03/08 02:21:30;;;;;;;27.55;25.88;;;;;;;;;;5061323;28;20044;-60
2024/03/08 02:24:16;;;;;;;28.02;26.40;;;;;;;;;;5066577;28;20051;-60
2024/03/08 02:27:02;;;;;;;30.17;28.48;;;;;;;;;;5067367;28;20071;-60
2024/03/08 02:29:48;;;;;;;28.90;27.10;;;;;;;;;;5065624;28;20048;-60
2024/03/08 02:32:33;;;;;;;28.08;26.40;;;;;;;;;;5066395;28;20037;-60
2024/03/08 02:35:19;;;;;;;27.88;26.08;;;;;;;;;;5053012;28;20056;-60
2024/03/08 02:38:05;;;;;;;27.17;25.58;;;;;;;;;;5066633;28;20048;-60
2024/03/08 02:40:53;;;;;;;28.92;27.23;;;;;;;;;;5064711;28;20449;-60
2024/03/08 02:43:38;;;;;;;28.65;26.63;;;;;;;;;;5063480;28;20051;-60
2024/03/08 02:46:24;;;;;;;27.80;26.10;;;;;;;;;;5052065;28;20354;-60
2024/03/08 02:49:11;;;;;;;27.40;25.83;;;;;;;;;;5063974;28;20129;-60
2024/03/08 02:51:57;;;;;;;31.20;29.33;;;;;;;;;;5065710;28;20044;-60
2024/03/08 02:54:43;;;;;;;28.08;26.48;;;;;;;;;;5066848;28;20036;-60
2024/03/08 02:57:29;;;;;;;28.80;27.20;;;;;;;;;;5064336;28;20429;-60
2024/03/08 03:00:15;;;;;;;29.85;28.08;;;;;;;;;;5063492;28;20360;-60
2024/03/08 03:03:02;;;;;;;28.48;26.77;;;;;;;;;;5066408;28;20063;-60
2024/03/08 03:05:49;;;;;;;27.67;26.10;;;;;;;;;;5066192;28;20044;-60
2024/03/08 03:08:35;;;;;;;27.55;25.75;;;;;;;;;;5064172;28;20036;-60
2024/03/08 03:11:22;;;;;;;28.88;26.95;;;;;;;;;;5064018;28;20892;-60
2024/03/08 03:14:07;;;;;;;28.63;26.77;;;;;;;;;;5066998;28;20036;-60
2024/03/08 03:16:54;;;;;;;27.65;26.02;;;;;;;;;;5066751;28;20728;-60
2024/03/08 03:19:42;;;;;;;31.67;29.30;;;;;;;;;;5065327;28;20046;-61
2024/03/08 03:22:30;;;;;;;28.45;26.55;;;;;;;;;;5049529;28;20106;-60
2024/03/08 03:25:23;;;;;;;26.38;24.80;;;;;;;;;;5069113;28;20511;-60
2024/03/08 03:28:10;;;;;;;26.60;24.90;;;;;;;;;;5067798;28;20068;-60
2024/03/08 03:30:58;;;;;;;26.65;24.75;;;;;;;;;;5063308;28;20092;-60
2024/03/08 03:33:44;;;;;;;27.25;25.63;;;;;;;;;;5065746;28;20040;-60
2024/03/08 03:36:30;;;;;;;25.10;23.65;;;;;;;;;;5066773;28;20040;-60
2024/03/08 03:39:16;;;;;;;26.52;24.98;;;;;;;;;;5067311;28;20036;-60
2024/03/08 03:42:04;;;;;;;24.75;23.25;;;;;;;;;;5067640;28;20029;-60
2024/03/08 03:44:50;;;;;;;23.85;22.40;;;;;;;;;;5063383;28;20032;-60
2024/03/08 03:47:36;;;;;;;24.08;22.65;;;;;;;;;;5065834;28;20138;-60
2024/03/08 03:50:23;;;;;;;21.70;20.30;;;;;;;;;;5062800;28;20954;-60
2024/03/08 03:53:09;;;;;;;24.55;22.67;;;;;;;;;;5065597;28;20037;-60
2024/03/08 03:55:54;;;;;;;23.33;21.75;;;;;;;;;;5063689;28;20029;-60
2024/03/08 03:58:40;;;;;;;23.23;21.83;;;;;;;;;;5063329;28;20040;-61
2024/03/08 04:01:25;;;;;;;23.10;21.60;;;;;;;;;;5065282;28;20123;-61
2024/03/08 04:04:12;;;;;;;22.20;20.90;;;;;;;;;;5063146;28;20055;-60
2024/03/08 04:06:58;;;;;;;24.35;22.55;;;;;;;;;;5066401;28;20036;-60
2024/03/08 04:09:43;;;;;;;24.17;22.10;;;;;;;;;;5064850;28;20778;-60
2024/03/08 04:12:29;;;;;;;21.92;20.48;;;;;;;;;;5090959;28;20043;-60
2024/03/08 04:15:15;;;;;;;21.58;20.38;;;;;;;;;;5092757;28;20175;-60
2024/03/08 04:18:01;;;;;;;22.88;21.58;;;;;;;;;;5077925;28;21396;-59
2024/03/08 04:20:47;;;;;;;23.75;22.25;;;;;;;;;;5075554;28;20440;-59
2024/03/08 04:23:35;;;;;;;21.50;19.88;;;;;;;;;;5088600;28;20059;-59
2024/03/08 04:26:21;;;;;;;22.08;20.67;;;;;;;;;;5091557;28;20755;-59
2024/03/08 04:29:06;;;;;;;23.02;21.50;;;;;;;;;;5086038;28;20449;-59
2024/03/08 04:31:55;;;;;;;22.88;21.40;;;;;;;;;;5086367;28;20048;-60
2024/03/08 04:34:40;;;;;;;21.92;20.52;;;;;;;;;;5061525;28;20061;-59
2024/03/08 04:37:26;;;;;;;22.35;20.73;;;;;;;;;;5062359;28;20071;-59
2024/03/08 04:40:12;;;;;;;21.88;20.45;;;;;;;;;;5067259;28;20106;-59
2024/03/08 04:42:59;;;;;;;23.75;22.20;;;;;;;;;;5069241;28;20036;-59
2024/03/08 04:45:44;;;;;;;22.02;20.63;;;;;;;;;;5064082;28;20055;-59
2024/03/08 04:48:30;;;;;;;21.77;20.38;;;;;;;;;;5067398;28;20042;-59
2024/03/08 04:51:16;;;;;;;22.23;20.83;;;;;;;;;;5065671;28;20214;-60
2024/03/08 04:54:02;;;;;;;22.27;20.65;;;;;;;;;;5063717;28;20037;-59
2024/03/08 04:56:47;;;;;;;24.42;22.95;;;;;;;;;;5064802;28;20071;-59
2024/03/08 04:59:33;;;;;;;25.20;23.15;;;;;;;;;;5061230;28;20036;-59
2024/03/08 05:02:18;;;;;;;22.33;20.95;;;;;;;;;;5064862;28;20159;-60
2024/03/08 05:05:12;;;;;;;25.15;23.45;;;;;;;;;;5065426;28;20044;-59
2024/03/08 05:07:58;;;;;;;21.15;19.85;;;;;;;;;;5065153;28;20501;-60
2024/03/08 05:10:44;;;;;;;23.38;21.55;;;;;;;;;;5062501;28;20033;-60
2024/03/08 05:13:30;;;;;;;22.27;20.85;;;;;;;;;;5067246;28;20029;-60
2024/03/08 05:16:16;;;;;;;24.33;22.83;;;;;;;;;;5049858;28;20044;-60
2024/03/08 05:19:03;;;;;;;24.27;22.65;;;;;;;;;;5061872;28;20036;-60
2024/03/08 05:21:49;;;;;;;23.60;22.15;;;;;;;;;;5064278;28;20705;-59
2024/03/08 05:24:36;;;;;;;22.92;21.63;;;;;;;;;;5055210;28;20040;-60
2024/03/08 05:27:21;;;;;;;23.08;21.45;;;;;;;;;;5066749;28;20040;-59
2024/03/08 05:30:08;;;;;;;22.05;20.67;;;;;;;;;;5062145;28;20113;-60
2024/03/08 05:32:53;;;;;;;21.08;19.75;;;;;;;;;;5060810;28;20040;-60
2024/03/08 05:35:40;;;;;;;23.88;22.27;;;;;;;;;;5064868;28;20545;-59
2024/03/08 05:38:25;;;;;;;22.70;21.17;;;;;;;;;;5064316;28;20067;-60
2024/03/08 05:41:14;;;;;;;22.00;20.67;;;;;;;;;;5065983;28;20044;-59
2024/03/08 05:44:00;;;;;;;24.05;22.30;;;;;;;;;;5062854;28;20040;-60
2024/03/08 05:46:48;;;;;;;24.05;22.55;;;;;;;;;;5061892;28;20037;-59
2024/03/08 05:49:34;;;;;;;22.33;20.98;;;;;;;;;;5065702;28;20040;-59
2024/03/08 05:52:00;;;;;;;23.95;22.45;;;;;;;;;;5066245;28;20032;-59
2024/03/08 05:54:27;;;;;;;23.58;22.17;;;;;;;;;;5065896;28;20041;-59
2024/03/08 05:56:52;;;;;;;22.38;20.90;;;;;;;;;;5048042;28;20040;-59
2024/03/08 05:59:18;;;;;;;23.25;21.17;;;;;;;;;;5070720;28;20024;-60
2024/03/08 06:01:43;;;;;;;25.13;23.35;;;;;;;;;;5069655;28;20457;-60
2024/03/08 06:04:10;;;;;;;21.92;20.63;;;;;;;;;;5070373;28;20036;-60
2024/03/08 06:06:37;;;;;;;23.35;21.75;;;;;;;;;;5070435;28;20064;-59
2024/03/08 06:09:09;;;;;;;24.70;22.88;;;;;;;;;;5067354;28;20032;-60
2024/03/08 06:11:34;;;;;;;23.20;21.75;;;;;;;;;;5070197;28;20046;-60
2024/03/08 06:13:59;;;;;;;22.77;21.17;;;;;;;;;;5070623;28;20055;-59
2024/03/08 06:16:28;;;;;;;24.05;22.42;;;;;;;;;;5072740;28;20102;-60
2024/03/08 06:18:57;;;;;;;21.63;20.27;;;;;;;;;;5068550;28;20079;-60
2024/03/08 06:21:25;;;;;;;22.95;21.55;;;;;;;;;;5069437;28;20086;-60
2024/03/08 06:23:51;;;;;;;22.95;20.85;;;;;;;;;;5069578;28;20425;-60
2024/03/08 06:26:17;;;;;;;21.13;19.85;;;;;;;;;;5070866;28;20089;-60
2024/03/08 06:28:42;;;;;;;23.33;21.83;;;;;;;;;;5070181;28;20028;-61
2024/03/08 06:31:08;;;;;;;21.92;20.63;;;;;;;;;;5069602;28;20059;-60
2024/03/08 06:33:33;;;;;;;23.33;21.92;;;;;;;;;;5051579;28;20142;-60
2024/03/08 06:35:58;;;;;;;22.50;21.10;;;;;;;;;;5071098;28;20064;-59
2024/03/08 06:38:24;;;;;;;23.83;22.02;;;;;;;;;;5069900;28;20036;-59
2024/03/08 06:40:51;;;;;;;23.55;21.95;;;;;;;;;;5069526;28;20047;-59
2024/03/08 06:43:17;;;;;;;23.17;21.55;;;;;;;;;;5069198;28;20044;-60
2024/03/08 06:45:48;;;;;;;22.65;21.00;;;;;;;;;;5068229;28;20060;-60
2024/03/08 06:48:14;;;;;;;21.50;20.20;;;;;;;;;;5069321;28;20040;-60
2024/03/08 06:50:40;;;;;;;24.48;22.90;;;;;;;;;;5066813;28;20605;-60
2024/03/08 06:53:06;;;;;;;22.98;21.33;;;;;;;;;;5068136;28;20139;-60
2024/03/08 06:55:31;;;;;;;23.67;22.17;;;;;;;;;;5070246;28;20466;-60
2024/03/08 06:57:58;;;;;;;22.15;20.83;;;;;;;;;;5068976;28;20036;-60
2024/03/08 07:00:26;;;;;;;24.95;23.25;;;;;;;;;;5068061;28;20048;-60
2024/03/08 07:02:53;;;;;;;24.00;22.60;;;;;;;;;;5068593;28;20045;-60
2024/03/08 07:05:19;;;;;;;25.05;23.20;;;;;;;;;;5072791;28;20111;-60
2024/03/08 07:07:44;;;;;;;25.05;23.55;;;;;;;;;;5068489;28;20131;-60
2024/03/08 07:10:14;;;;;;;24.90;23.40;;;;;;;;;;5069556;28;20024;-60
2024/03/08 07:12:39;;;;;;;23.17;21.40;;;;;;;;;;5069275;28;20032;-60
2024/03/08 07:15:05;;;;;;;22.30;20.75;;;;;;;;;;5051543;28;20075;-60
2024/03/08 07:17:34;;;;;;;22.30;20.90;;;;;;;;;;5070717;28;20105;-60
2024/03/08 07:20:06;;;;;;;24.00;22.40;;;;;;;;;;5071613;28;20016;-60
2024/03/08 07:22:32;;;;;;;27.00;25.30;;;;;;;;;;5069907;28;20458;-60
2024/03/08 07:27:41;;;;;;;30.88;29.08;;;;;;;;;;5069613;28;20032;-60
2024/03/08 07:30:10;;;;;;;29.52;27.83;;;;;;;;;;5067263;28;20039;-60
2024/03/08 07:32:35;;;;;;;29.27;27.58;;;;;;;;;;5068563;28;20110;-60
2024/03/08 07:35:01;;;;;;;31.98;29.73;;;;;;;;;;5069768;28;20462;-61
2024/03/08 07:37:27;;;;;;;29.10;27.38;;;;;;;;;;5033614;28;20051;-60
2024/03/08 07:39:52;;;;;;;29.90;28.10;;;;;;;;;;5066626;28;20017;-60
2024/03/08 07:42:18;;;;;;;28.80;27.20;;;;;;;;;;5085225;28;20040;-60
2024/03/08 07:44:43;;;;;;;28.90;26.63;;;;;;;;;;5065338;28;20083;-60
2024/03/08 07:47:09;;;;;;;27.40;25.70;;;;;;;;;;5066990;28;20474;-60
2024/03/08 07:49:37;;;;;;;28.98;27.08;;;;;;;;;;5067921;28;20040;-60
2024/03/08 07:52:07;;;;;;;29.65;27.65;;;;;;;;;;5068553;28;20345;-60
2024/03/08 07:54:33;;;;;;;28.23;26.52;;;;;;;;;;5068999;28;20086;-60
2024/03/08 07:56:59;;;;;;;30.13;28.33;;;;;;;;;;5069025;28;20106;-60
2024/03/08 07:59:24;;;;;;;29.73;27.92;;;;;;;;;;5068405;28;20028;-60
2024/03/08 08:01:50;;;;;;;30.73;28.85;;;;;;;;;;5069360;28;20098;-61
2024/03/08 08:04:17;;;;;;;33.40;31.38;;;;;;;;;;5070261;28;20108;-60
2024/03/08 08:06:43;;;;;;;31.42;29.42;;;;;;;;;;5067686;28;20405;-61
2024/03/08 08:09:14;;;;;;;33.90;31.75;;;;;;;;;;5069646;28;20078;-60
2024/03/08 08:11:43;;;;;;;36.25;34.15;;;;;;;;;;5071494;28;20632;-61
2024/03/08 08:14:11;;;;;;;37.63;35.05;;;;;;;;;;5070102;28;20118;-60
2024/03/08 08:16:37;;;;;;;35.92;33.55;;;;;;;;;;5037594;28;20365;-61
2024/03/08 08:19:07;;;;;;;36.15;33.85;;;;;;;;;;5066803;28;20043;-60
2024/03/08 08:21:36;;;;;;;34.47;32.50;;;;;;;;;;5068274;28;20476;-60
2024/03/08 08:24:05;;;;;;;33.28;31.38;;;;;;;;;;5068510;28;20401;-61
2024/03/08 08:26:30;;;;;;;33.03;30.88;;;;;;;;;;5037446;28;20044;-60
2024/03/08 08:28:56;;;;;;;39.10;36.58;;;;;;;;;;5048248;28;20051;-61
2024/03/08 08:31:21;;;;;;;34.60;32.60;;;;;;;;;;5067240;28;20046;-60
2024/03/08 08:33:48;;;;;;;36.10;33.90;;;;;;;;;;5071705;28;20485;-60
2024/03/08 08:36:14;;;;;;;35.42;33.33;;;;;;;;;;5067677;28;20551;-60
2024/03/08 08:38:39;;;;;;;38.28;35.95;;;;;;;;;;5066718;28;20037;-61
2024/03/08 08:41:06;;;;;;;38.97;36.70;;;;;;;;;;5068130;28;21205;-60
2024/03/08 08:43:33;;;;;;;45.38;42.83;;;;;;;;;;5070049;28;20055;-60
2024/03/08 08:45:59;;;;;;;46.90;44.20;;;;;;;;;;5068686;28;20181;-61
2024/03/08 08:48:24;;;;;;;43.05;40.65;;;;;;;;;;5069869;28;20137;-60
2024/03/08 08:50:52;;;;;;;42.75;40.08;;;;;;;;;;5068911;28;20624;-60
2024/03/08 08:53:18;;;;;;;48.65;45.55;;;;;;;;;;5070027;28;20036;-61
2024/03/08 08:55:45;;;;;;;44.50;42.00;;;;;;;;;;5065979;28;20039;-60
2024/03/08 08:58:11;;;;;;;50.17;47.08;;;;;;;;;;5068447;28;20043;-60
2024/03/08 09:00:36;;;;;;;50.63;47.80;;;;;;;;;;5066842;28;20409;-60
2024/03/08 09:03:02;;;;;;;47.25;44.72;;;;;;;;;;5066338;28;20401;-61
2024/03/08 09:05:27;;;;;;;50.70;47.45;;;;;;;;;;5047808;28;20029;-61
2024/03/08 09:07:53;;;;;;;52.60;49.67;;;;;;;;;;5069537;28;20028;-61
2024/03/08 09:10:18;;;;;;;55.80;52.38;;;;;;;;;;5050918;28;20040;-60
2024/03/08 09:12:44;;;;;;;59.83;56.20;;;;;;;;;;5050199;28;20036;-63
2024/03/08 09:15:12;;;;;;;53.78;50.78;;;;;;;;;;5065830;28;20040;-61
2024/03/08 09:17:41;;;;;;;58.00;54.97;;;;;;;;;;5067908;28;20040;-61
2024/03/08 09:20:08;;;;;;;54.13;51.22;;;;;;;;;;5066364;28;20025;-63
2024/03/08 09:22:34;;;;;;;55.25;52.25;;;;;;;;;;5066038;28;20473;-61
2024/03/08 09:24:59;;;;;;;54.50;51.60;;;;;;;;;;5083158;28;20028;-61
2024/03/08 09:27:24;;;;;;;51.05;48.25;;;;;;;;;;5087180;28;20111;-60
2024/03/08 09:29:50;;;;;;;47.92;45.38;;;;;;;;;;5086520;28;20055;-61
2024/03/08 09:32:16;;;;;;;44.25;41.85;;;;;;;;;;5067370;28;20623;-61
2024/03/08 09:34:42;;;;;;;40.05;37.85;;;;;;;;;;5087885;28;20127;-62
2024/03/08 09:37:08;;;;;;;40.40;37.97;;;;;;;;;;5051339;28;20143;-61
2024/03/08 09:39:34;;;;;;;40.25;38.05;;;;;;;;;;5088204;28;20120;-61
2024/03/08 09:42:01;;;;;;;34.22;32.22;;;;;;;;;;5084473;28;20076;-61
2024/03/08 09:44:28;;;;;;;35.13;33.22;;;;;;;;;;5067550;28;20122;-61
2024/03/08 09:46:55;;;;;;;40.15;38.00;;;;;;;;;;5068216;28;20047;-61
2024/03/08 09:49:20;;;;;;;43.47;41.03;;;;;;;;;;5087665;28;20111;-61
2024/03/08 09:51:46;;;;;;;40.63;38.17;;;;;;;;;;5089747;28;20119;-61
2024/03/08 09:54:12;;;;;;;41.42;39.05;;;;;;;;;;5085357;28;20051;-62
2024/03/08 09:56:41;;;;;;;36.45;34.45;;;;;;;;;;5087610;28;20047;-61
2024/03/08 09:59:43;;;;;;;38.45;36.20;;;;;;;;;;5087586;28;20086;-61
2024/03/08 10:02:14;;;;;;;34.58;32.67;;;;;;;;;;5085069;28;20150;-61
2024/03/08 10:04:42;;;;;;;33.58;31.23;;;;;;;;;;5087919;28;20342;-61
2024/03/08 10:07:07;;;;;;;33.80;31.90;;;;;;;;;;5088243;28;20373;-61
2024/03/08 10:09:33;;;;;;;32.92;31.02;;;;;;;;;;5068528;28;20458;-61
2024/03/08 10:11:58;;;;;;;32.80;30.88;;;;;;;;;;5087965;28;20036;-61
2024/03/08 10:14:26;;;;;;;35.65;33.78;;;;;;;;;;5087126;28;20024;-61
2024/03/08 10:16:52;;;;;;;39.25;37.05;;;;;;;;;;5088980;28;20058;-61
2024/03/08 10:19:17;;;;;;;38.70;36.53;;;;;;;;;;5087318;28;20258;-61
2024/03/08 10:21:49;;;;;;;37.33;35.13;;;;;;;;;;5087847;28;20039;-61
2024/03/08 10:24:15;;;;;;;39.10;36.60;;;;;;;;;;5044850;28;20035;-61
2024/03/08 10:26:43;;;;;;;40.72;38.42;;;;;;;;;;5076718;28;20040;-61
2024/03/08 10:29:08;;;;;;;40.22;37.97;;;;;;;;;;5073271;28;20114;-61
2024/03/08 10:31:34;;;;;;;41.00;38.78;;;;;;;;;;5083187;28;20066;-61
2024/03/08 10:34:00;;;;;;;40.80;38.40;;;;;;;;;;5067240;28;20024;-62
2024/03/08 10:36:27;;;;;;;42.95;40.55;;;;;;;;;;5087966;28;20040;-61
2024/03/08 10:38:53;;;;;;;41.08;38.88;;;;;;;;;;5085201;28;20040;-61
2024/03/08 10:41:22;;;;;;;38.95;36.92;;;;;;;;;;5083391;28;20050;-61
2024/03/08 10:44:14;;;;;;;44.22;41.88;;;;;;;;;;5087549;28;20027;-61
2024/03/08 10:47:05;;;;;;;44.80;42.10;;;;;;;;;;5086834;28;20043;-61
2024/03/08 10:50:03;;;;;;;48.58;45.90;;;;;;;;;;5087808;28;20067;-64
2024/03/08 10:52:29;;;;;;;48.65;45.95;;;;;;;;;;5085102;28;20040;-64
2024/03/08 10:54:56;;;;;;;48.85;46.28;;;;;;;;;;5072324;28;20066;-64
2024/03/08 10:57:23;;;;;;;47.83;45.17;;;;;;;;;;5087858;28;20047;-61
2024/03/08 10:59:49;;;;;;;47.75;45.15;;;;;;;;;;5086605;28;20103;-62
2024/03/08 11:02:16;;;;;;;49.25;46.45;;;;;;;;;;5084129;28;20369;-63
2024/03/08 11:04:50;;;;;;;48.47;45.78;;;;;;;;;;5088643;28;20449;-63
2024/03/08 11:07:19;;;;;;;49.80;47.13;;;;;;;;;;5086665;28;20044;-63
2024/03/08 11:09:46;;;;;;;48.17;45.28;;;;;;;;;;5088978;28;20031;-63
2024/03/08 11:12:29;;;;;;;52.97;50.17;;;;;;;;;;5087147;28;20039;-63
2024/03/08 11:14:55;;;;;;;50.63;47.85;;;;;;;;;;5068085;28;20031;-62
2024/03/08 11:17:30;;;;;;;49.70;47.00;;;;;;;;;;5069670;28;20546;-62
2024/03/08 11:20:00;;;;;;;45.20;42.80;;;;;;;;;;5062626;28;20036;-62
2024/03/08 11:22:32;;;;;;;46.13;43.53;;;;;;;;;;5084135;28;20063;-63
2024/03/08 11:25:09;;;;;;;45.88;43.38;;;;;;;;;;5087440;28;20282;-63
2024/03/08 11:27:36;;;;;;;43.17;40.90;;;;;;;;;;5069892;28;20067;-63
2024/03/08 11:30:11;;;;;;;43.28;40.80;;;;;;;;;;5086446;28;20024;-63
2024/03/08 11:32:37;;;;;;;42.88;40.47;;;;;;;;;;5091747;28;20369;-63
2024/03/08 11:35:06;;;;;;;43.25;40.70;;;;;;;;;;5088234;28;20046;-63
2024/03/08 11:37:34;;;;;;;40.05;37.85;;;;;;;;;;5089524;28;20106;-63
2024/03/08 11:40:01;;;;;;;47.22;44.53;;;;;;;;;;5087029;28;20127;-63
2024/03/08 11:42:27;;;;;;;42.35;40.03;;;;;;;;;;5088659;28;20085;-63
2024/03/08 11:44:53;;;;;;;38.85;36.85;;;;;;;;;;5089459;28;20024;-63
2024/03/08 11:47:19;;;;;;;40.75;38.30;;;;;;;;;;5088871;28;20059;-61
2024/03/08 11:49:48;;;;;;;40.72;38.38;;;;;;;;;;5088058;28;20066;-63
2024/03/08 11:52:15;;;;;;;40.17;37.90;;;;;;;;;;5086235;28;20035;-61
2024/03/08 11:54:51;;;;;;;38.45;36.15;;;;;;;;;;5088079;28;20040;-61
2024/03/08 11:57:21;;;;;;;42.17;39.10;;;;;;;;;;5088123;28;20042;-61
2024/03/08 11:59:51;;;;;;;37.28;35.15;;;;;;;;;;5070265;28;20057;-61
2024/03/08 12:02:16;;;;;;;38.55;36.40;;;;;;;;;;5069345;28;20035;-61
2024/03/08 12:04:42;;;;;;;39.42;37.22;;;;;;;;;;5086769;28;20089;-61
2024/03/08 12:07:11;;;;;;;37.80;35.78;;;;;;;;;;5081318;28;20115;-61
2024/03/08 12:09:37;;;;;;;40.53;38.25;;;;;;;;;;5088222;28;20032;-61
2024/03/08 12:12:04;;;;;;;36.42;34.40;;;;;;;;;;5086848;28;20032;-61
2024/03/08 12:14:31;;;;;;;39.90;37.70;;;;;;;;;;5087690;28;20070;-62
2024/03/08 12:16:57;;;;;;;39.03;36.92;;;;;;;;;;5070425;28;20134;-62
2024/03/08 12:19:23;;;;;;;42.25;39.92;;;;;;;;;;5086485;28;20465;-62
2024/03/08 12:21:48;;;;;;;38.67;36.40;;;;;;;;;;5085644;28;20067;-63
2024/03/08 12:24:21;;;;;;;39.08;36.83;;;;;;;;;;5086666;28;20036;-62
2024/03/08 12:26:51;;;;;;;38.47;36.17;;;;;;;;;;5087114;28;20497;-61
2024/03/08 12:29:22;;;;;;;38.03;35.83;;;;;;;;;;5085331;28;20032;-62
2024/03/08 12:31:51;;;;;;;37.10;34.97;;;;;;;;;;5087283;28;20036;-62
2024/03/08 12:34:17;;;;;;;36.70;34.70;;;;;;;;;;5089449;28;20805;-62
2024/03/08 12:36:47;;;;;;;35.65;33.65;;;;;;;;;;5087687;28;20118;-62
2024/03/08 12:39:16;;;;;;;34.33;32.42;;;;;;;;;;5087071;28;20036;-62
2024/03/08 12:41:42;;;;;;;35.83;33.72;;;;;;;;;;5087517;28;20028;-59
2024/03/08 12:44:11;;;;;;;36.55;34.15;;;;;;;;;;5068573;28;20707;-60
2024/03/08 12:46:40;;;;;;;33.70;31.90;;;;;;;;;;5086385;28;20043;-59
2024/03/08 12:49:07;;;;;;;35.08;33.17;;;;;;;;;;5088082;28;20027;-59
2024/03/08 12:51:33;;;;;;;39.95;37.25;;;;;;;;;;5087750;28;20509;-61
2024/03/08 12:53:59;;;;;;;36.97;34.88;;;;;;;;;;5087620;28;20217;-62
2024/03/08 12:56:34;;;;;;;38.90;36.55;;;;;;;;;;5086479;28;20037;-62
2024/03/08 12:59:00;;;;;;;37.95;35.75;;;;;;;;;;5090000;28;20028;-61
2024/03/08 13:01:26;;;;;;;36.78;34.75;;;;;;;;;;5086578;28;20043;-61
2024/03/08 13:03:55;;;;;;;34.80;32.90;;;;;;;;;;5087626;28;20034;-61
2024/03/08 13:06:24;;;;;;;37.28;35.17;;;;;;;;;;5086974;28;20059;-61
2024/03/08 13:08:51;;;;;;;41.25;38.53;;;;;;;;;;5087483;28;20027;-59
2024/03/08 13:11:17;;;;;;;41.40;39.10;;;;;;;;;;5088078;28;20109;-59
2024/03/08 13:13:44;;;;;;;40.05;37.63;;;;;;;;;;5086019;28;20118;-59
2024/03/08 13:16:09;;;;;;;41.85;39.45;;;;;;;;;;5088797;28;20571;-61
2024/03/08 13:18:36;;;;;;;50.30;47.53;;;;;;;;;;5087509;28;20035;-62
2024/03/08 13:21:07;;;;;;;39.97;37.70;;;;;;;;;;5089603;28;20177;-60
2024/03/08 13:23:40;;;;;;;42.17;39.88;;;;;;;;;;5084905;28;20036;-60
2024/03/08 13:26:12;;;;;;;43.38;40.75;;;;;;;;;;5069285;28;20031;-59
2024/03/08 13:28:37;;;;;;;39.95;37.63;;;;;;;;;;5087417;28;20027;-59
2024/03/08 13:31:06;;;;;;;43.72;41.17;;;;;;;;;;5087908;28;20608;-60
2024/03/08 13:33:35;;;;;;;44.88;42.47;;;;;;;;;;5086272;28;20092;-60
2024/03/08 13:36:02;;;;;;;43.20;40.80;;;;;;;;;;5088729;28;20061;-60
2024/03/08 13:38:27;;;;;;;47.15;44.35;;;;;;;;;;5085382;28;20031;-60
2024/03/08 13:40:52;;;;;;;44.47;41.95;;;;;;;;;;5071170;28;20035;-60
2024/03/08 13:43:18;;;;;;;43.78;41.50;;;;;;;;;;5067783;28;20085;-60
2024/03/08 13:45:43;;;;;;;45.53;42.95;;;;;;;;;;5084228;28;20044;-61
2024/03/08 13:48:12;;;;;;;43.88;41.42;;;;;;;;;;5085607;28;20081;-60
2024/03/08 13:50:38;;;;;;;43.45;41.05;;;;;;;;;;5084882;28;20036;-60
2024/03/08 13:53:04;;;;;;;42.97;40.58;;;;;;;;;;5086044;28;20138;-64
2024/03/08 13:55:30;;;;;;;42.95;40.63;;;;;;;;;;5087547;28;20077;-60
2024/03/08 13:57:57;;;;;;;42.17;39.97;;;;;;;;;;5086883;28;20036;-60
2024/03/08 14:00:24;;;;;;;41.67;39.47;;;;;;;;;;5087889;28;20039;-60
2024/03/08 14:02:50;;;;;;;42.95;40.55;;;;;;;;;;5088417;28;20043;-60
2024/03/08 14:05:16;;;;;;;43.28;40.88;;;;;;;;;;5047310;28;20021;-60
2024/03/08 14:07:41;;;;;;;42.67;40.38;;;;;;;;;;5088218;28;20032;-60
2024/03/08 14:10:09;;;;;;;42.58;40.22;;;;;;;;;;5074255;28;20023;-61
2024/03/08 14:12:35;;;;;;;42.47;40.28;;;;;;;;;;5087082;28;20469;-61
2024/03/08 14:15:00;;;;;;;43.60;41.13;;;;;;;;;;5087297;28;20035;-61
2024/03/08 14:17:27;;;;;;;41.67;39.42;;;;;;;;;;5089450;28;20458;-60
2024/03/08 14:19:54;;;;;;;42.17;39.75;;;;;;;;;;5094713;28;20051;-60
2024/03/08 14:22:19;;;;;;;42.30;39.70;;;;;;;;;;5090732;28;20032;-60
2024/03/08 14:24:45;;;;;;;42.60;40.30;;;;;;;;;;5089058;28;20035;-60
2024/03/08 14:27:11;;;;;;;41.50;39.30;;;;;;;;;;5091344;28;20050;-60
2024/03/08 14:29:38;;;;;;;43.63;41.03;;;;;;;;;;5085496;28;20032;-62
2024/03/08 14:32:06;;;;;;;42.58;40.28;;;;;;;;;;5091594;28;20118;-61
2024/03/08 14:34:33;;;;;;;43.50;41.15;;;;;;;;;;5091466;28;20055;-62
2024/03/08 14:37:00;;;;;;;47.33;44.63;;;;;;;;;;5091685;28;20043;-61
2024/03/08 14:39:26;;;;;;;42.67;40.35;;;;;;;;;;5067442;28;20051;-61
2024/03/08 14:41:53;;;;;;;46.08;43.40;;;;;;;;;;5090267;28;20431;-61
2024/03/08 14:44:25;;;;;;;43.35;40.85;;;;;;;;;;5088689;28;20032;-61
2024/03/08 14:46:57;;;;;;;41.53;38.88;;;;;;;;;;5085007;28;20020;-61
2024/03/08 14:49:22;;;;;;;41.25;38.80;;;;;;;;;;5086372;28;20055;-62
2024/03/08 14:51:48;;;;;;;41.55;39.22;;;;;;;;;;5087374;28;20610;-61
2024/03/08 14:54:13;;;;;;;46.75;44.08;;;;;;;;;;5083519;28;20035;-59
2024/03/08 14:56:41;;;;;;;44.65;42.13;;;;;;;;;;5087309;28;20518;-60
2024/03/08 14:59:07;;;;;;;43.22;40.83;;;;;;;;;;5087424;28;20122;-59
2024/03/08 15:01:35;;;;;;;45.35;42.92;;;;;;;;;;5088437;28;20476;-59